sensor_id;sensor_type;location;lat;lon;timestamp;pressure;altitude;pressure_sealevel;temperature
28305;BMP280;15569;42.652;23.040;2023-02-01T00:01:40;92950.94;;;3.51
28305;BMP280;15569;42.652;23.040;2023-02-01T00:04:06;92945.00;;;3.70
28305;BMP280;15569;42.652;23.040;2023-02-01T00:06:31;92942.13;;;3.68
28305;BMP280;15569;42.652;23.040;2023-02-01T00:08:57;92952.81;;;3.75
28305;BMP280;15569;42.652;23.040;2023-02-01T00:11:23;92954.00;;;3.82
28305;BMP280;15569;42.652;23.040;2023-02-01T00:13:49;92950.59;;;3.81
28305;BMP280;15569;42.652;23.040;2023-02-01T00:16:20;92941.81;;;3.81
28305;BMP280;15569;42.652;23.040;2023-02-01T00:18:48;92949.31;;;3.82
28305;BMP280;15569;42.652;23.040;2023-02-01T00:21:15;92957.84;;;3.71
28305;BMP280;15569;42.652;23.040;2023-02-01T00:23:41;92948.78;;;3.49
28305;BMP280;15569;42.652;23.040;2023-02-01T00:26:13;92954.16;;;3.49
28305;BMP280;15569;42.652;23.040;2023-02-01T00:28:39;92949.88;;;3.46
28305;BMP280;15569;42.652;23.040;2023-02-01T00:31:05;92952.25;;;3.60
28305;BMP280;15569;42.652;23.040;2023-02-01T00:33:32;92946.09;;;3.67
28305;BMP280;15569;42.652;23.040;2023-02-01T00:35:59;92956.19;;;3.76
28305;BMP280;15569;42.652;23.040;2023-02-01T00:38:26;92952.81;;;3.75
28305;BMP280;15569;42.652;23.040;2023-02-01T00:40:52;92946.25;;;3.69
28305;BMP280;15569;42.652;23.040;2023-02-01T00:43:17;92945.69;;;3.70
28305;BMP280;15569;42.652;23.040;2023-02-01T00:45:43;92950.63;;;3.64
28305;BMP280;15569;42.652;23.040;2023-02-01T00:48:08;92940.09;;;3.59
28305;BMP280;15569;42.652;23.040;2023-02-01T00:50:33;92948.88;;;3.42
28305;BMP280;15569;42.652;23.040;2023-02-01T00:52:59;92946.34;;;3.44
28305;BMP280;15569;42.652;23.040;2023-02-01T00:55:24;92922.41;;;3.21
28305;BMP280;15569;42.652;23.040;2023-02-01T00:57:50;92914.91;;;3.20
28305;BMP280;15569;42.652;23.040;2023-02-01T01:00:16;92934.59;;;3.39
28305;BMP280;15569;42.652;23.040;2023-02-01T01:02:41;92936.94;;;3.35
28305;BMP280;15569;42.652;23.040;2023-02-01T01:05:07;92934.41;;;3.37
28305;BMP280;15569;42.652;23.040;2023-02-01T01:07:32;92934.09;;;3.33
28305;BMP280;15569;42.652;23.040;2023-02-01T01:09:58;92938.91;;;3.35
28305;BMP280;15569;42.652;23.040;2023-02-01T01:12:23;92926.59;;;3.15
28305;BMP280;15569;42.652;23.040;2023-02-01T01:14:49;92929.03;;;3.03
28305;BMP280;15569;42.652;23.040;2023-02-01T01:17:14;92927.53;;;2.92
28305;BMP280;15569;42.652;23.040;2023-02-01T01:19:39;92940.72;;;2.98
28305;BMP280;15569;42.652;23.040;2023-02-01T01:22:05;92935.88;;;2.97
28305;BMP280;15569;42.652;23.040;2023-02-01T01:24:30;92943.69;;;2.85
28305;BMP280;15569;42.652;23.040;2023-02-01T01:26:56;92940.91;;;2.75
28305;BMP280;15569;42.652;23.040;2023-02-01T01:29:21;92943.34;;;2.81
28305;BMP280;15569;42.652;23.040;2023-02-01T01:31:47;92939.16;;;2.70
28305;BMP280;15569;42.652;23.040;2023-02-01T01:34:12;92951.38;;;2.64
28305;BMP280;15569;42.652;23.040;2023-02-01T01:36:37;92939.75;;;2.37
28305;BMP280;15569;42.652;23.040;2023-02-01T01:39:03;92947.19;;;2.53
28305;BMP280;15569;42.652;23.040;2023-02-01T01:41:30;92943.19;;;2.62
28305;BMP280;15569;42.652;23.040;2023-02-01T01:43:58;92950.09;;;2.40
28305;BMP280;15569;42.652;23.040;2023-02-01T01:46:25;92946.13;;;2.49
28305;BMP280;15569;42.652;23.040;2023-02-01T01:49:00;92941.34;;;2.40
28305;BMP280;15569;42.652;23.040;2023-02-01T01:51:28;92954.59;;;2.38
28305;BMP280;15569;42.652;23.040;2023-02-01T01:54:17;92949.50;;;2.49
28305;BMP280;15569;42.652;23.040;2023-02-01T01:56:46;92957.78;;;2.44
28305;BMP280;15569;42.652;23.040;2023-02-01T01:59:14;92940.53;;;2.29
28305;BMP280;15569;42.652;23.040;2023-02-01T02:01:39;92955.25;;;2.46
28305;BMP280;15569;42.652;23.040;2023-02-01T02:04:05;92948.78;;;2.24
28305;BMP280;15569;42.652;23.040;2023-02-01T02:06:49;92952.84;;;2.33
28305;BMP280;15569;42.652;23.040;2023-02-01T02:09:16;92947.47;;;2.33
28305;BMP280;15569;42.652;23.040;2023-02-01T02:11:42;92947.22;;;2.21
28305;BMP280;15569;42.652;23.040;2023-02-01T02:14:09;92941.16;;;2.13
28305;BMP280;15569;42.652;23.040;2023-02-01T02:22:55;92958.31;;;2.17
28305;BMP280;15569;42.652;23.040;2023-02-01T02:26:08;92960.69;;;2.06
28305;BMP280;15569;42.652;23.040;2023-02-01T02:34:20;92954.56;;;2.13
28305;BMP280;15569;42.652;23.040;2023-02-01T02:42:44;92964.56;;;2.12
28305;BMP280;15569;42.652;23.040;2023-02-01T02:45:52;92967.50;;;1.99
28305;BMP280;15569;42.652;23.040;2023-02-01T02:48:47;92958.94;;;1.93
28305;BMP280;15569;42.652;23.040;2023-02-01T02:51:29;92967.50;;;1.99
28305;BMP280;15569;42.652;23.040;2023-02-01T02:54:23;92969.63;;;2.08
28305;BMP280;15569;42.652;23.040;2023-02-01T02:57:10;92965.09;;;2.18
28305;BMP280;15569;42.652;23.040;2023-02-01T02:59:57;92963.56;;;2.33
28305;BMP280;15569;42.652;23.040;2023-02-01T03:02:44;92962.44;;;2.43
28305;BMP280;15569;42.652;23.040;2023-02-01T03:05:37;92976.06;;;2.38
28305;BMP280;15569;42.652;23.040;2023-02-01T03:08:19;92969.97;;;2.37
28305;BMP280;15569;42.652;23.040;2023-02-01T03:11:12;92978.75;;;2.38
28305;BMP280;15569;42.652;23.040;2023-02-01T03:13:47;92980.59;;;2.27
28305;BMP280;15569;42.652;23.040;2023-02-01T03:18:59;92970.09;;;2.47
28305;BMP280;15569;42.652;23.040;2023-02-01T03:24:05;92971.59;;;2.65
28305;BMP280;15569;42.652;23.040;2023-02-01T03:26:36;92958.94;;;2.58
28305;BMP280;15569;42.652;23.040;2023-02-01T03:29:17;92981.44;;;2.62
28305;BMP280;15569;42.652;23.040;2023-02-01T03:31:43;92982.13;;;2.63
28305;BMP280;15569;42.652;23.040;2023-02-01T03:34:11;92985.06;;;2.82
28305;BMP280;15569;42.652;23.040;2023-02-01T03:36:42;92982.44;;;2.74
28305;BMP280;15569;42.652;23.040;2023-02-01T03:39:36;92983.50;;;2.96
28305;BMP280;15569;42.652;23.040;2023-02-01T03:42:07;92965.78;;;2.76
28305;BMP280;15569;42.652;23.040;2023-02-01T03:44:38;92983.75;;;2.90
28305;BMP280;15569;42.652;23.040;2023-02-01T03:47:10;92978.09;;;2.79
28305;BMP280;15569;42.652;23.040;2023-02-01T03:49:43;92977.66;;;2.90
28305;BMP280;15569;42.652;23.040;2023-02-01T03:52:13;92973.69;;;2.66
28305;BMP280;15569;42.652;23.040;2023-02-01T03:54:40;92963.69;;;2.42
28305;BMP280;15569;42.652;23.040;2023-02-01T03:57:11;92973.59;;;2.32
28305;BMP280;15569;42.652;23.040;2023-02-01T03:59:40;92992.72;;;2.61
28305;BMP280;15569;42.652;23.040;2023-02-01T04:02:06;92977.41;;;2.54
28305;BMP280;15569;42.652;23.040;2023-02-01T04:04:32;92969.84;;;2.60
28305;BMP280;15569;42.652;23.040;2023-02-01T04:06:58;92981.22;;;2.68
28305;BMP280;15569;42.652;23.040;2023-02-01T04:09:24;92991.03;;;2.73
28305;BMP280;15569;42.652;23.040;2023-02-01T04:11:49;92996.72;;;2.77
28305;BMP280;15569;42.652;23.040;2023-02-01T04:14:15;92994.41;;;2.73
28305;BMP280;15569;42.652;23.040;2023-02-01T04:16:40;92988.94;;;2.88
28305;BMP280;15569;42.652;23.040;2023-02-01T04:19:05;92996.91;;;2.96
28305;BMP280;15569;42.652;23.040;2023-02-01T04:21:31;92993.44;;;2.86
28305;BMP280;15569;42.652;23.040;2023-02-01T04:23:56;92996.91;;;2.96
28305;BMP280;15569;42.652;23.040;2023-02-01T04:26:22;92993.94;;;2.92
28305;BMP280;15569;42.652;23.040;2023-02-01T04:28:47;92985.03;;;2.89
28305;BMP280;15569;42.652;23.040;2023-02-01T04:31:17;92995.03;;;2.89
28305;BMP280;15569;42.652;23.040;2023-02-01T04:33:43;92993.44;;;2.86
28305;BMP280;15569;42.652;23.040;2023-02-01T04:36:09;92998.59;;;2.35
28305;BMP280;15569;42.652;23.040;2023-02-01T04:38:35;92992.09;;;2.20
28305;BMP280;15569;42.652;23.040;2023-02-01T04:41:00;92995.41;;;2.61
28305;BMP280;15569;42.652;23.040;2023-02-01T04:43:26;92996.28;;;2.88
28305;BMP280;15569;42.652;23.040;2023-02-01T04:45:52;92992.63;;;2.76
28305;BMP280;15569;42.652;23.040;2023-02-01T04:48:18;92998.53;;;2.74
28305;BMP280;15569;42.652;23.040;2023-02-01T04:50:45;93005.16;;;2.98
28305;BMP280;15569;42.652;23.040;2023-02-01T04:53:16;93004.09;;;2.93
28305;BMP280;15569;42.652;23.040;2023-02-01T04:55:43;93010.41;;;3.13
28305;BMP280;15569;42.652;23.040;2023-02-01T04:58:09;93016.75;;;3.25
28305;BMP280;15569;42.652;23.040;2023-02-01T05:00:35;93013.16;;;3.23
28305;BMP280;15569;42.652;23.040;2023-02-01T05:03:02;93014.38;;;3.29
28305;BMP280;15569;42.652;23.040;2023-02-01T05:05:28;93020.19;;;3.43
28305;BMP280;15569;42.652;23.040;2023-02-01T05:07:54;93030.81;;;3.50
28305;BMP280;15569;42.652;23.040;2023-02-01T05:10:20;93034.47;;;3.45
28305;BMP280;15569;42.652;23.040;2023-02-01T05:12:46;93033.50;;;3.50
28305;BMP280;15569;42.652;23.040;2023-02-01T05:15:30;93026.84;;;3.34
28305;BMP280;15569;42.652;23.040;2023-02-01T05:17:56;93040.41;;;3.61
28305;BMP280;15569;42.652;23.040;2023-02-01T05:20:22;93034.31;;;3.61
28305;BMP280;15569;42.652;23.040;2023-02-01T05:22:48;93036.19;;;3.50
28305;BMP280;15569;42.652;23.040;2023-02-01T05:25:13;93010.66;;;3.25
28305;BMP280;15569;42.652;23.040;2023-02-01T05:27:38;93029.09;;;3.45
28305;BMP280;15569;42.652;23.040;2023-02-01T05:30:05;93039.53;;;3.41
28305;BMP280;15569;42.652;23.040;2023-02-01T05:32:30;93032.03;;;3.40
28305;BMP280;15569;42.652;23.040;2023-02-01T05:34:56;93024.47;;;3.21
28305;BMP280;15569;42.652;23.040;2023-02-01T05:37:21;93032.13;;;3.25
28305;BMP280;15569;42.652;23.040;2023-02-01T05:39:47;93016.38;;;3.04
28305;BMP280;15569;42.652;23.040;2023-02-01T05:42:12;93042.81;;;3.32
28305;BMP280;15569;42.652;23.040;2023-02-01T05:44:38;93045.34;;;3.47
28305;BMP280;15569;42.652;23.040;2023-02-01T05:47:03;93048.44;;;3.44
28305;BMP280;15569;42.652;23.040;2023-02-01T05:49:29;93050.88;;;3.49
28305;BMP280;15569;42.652;23.040;2023-02-01T05:51:54;93042.78;;;3.40
28305;BMP280;15569;42.652;23.040;2023-02-01T05:54:20;93045.13;;;3.53
28305;BMP280;15569;42.652;23.040;2023-02-01T05:56:45;93056.91;;;3.40
28305;BMP280;15569;42.652;23.040;2023-02-01T05:59:10;93048.44;;;3.44
28305;BMP280;15569;42.652;23.040;2023-02-01T06:01:36;93057.84;;;3.35
28305;BMP280;15569;42.652;23.040;2023-02-01T06:04:01;93053.75;;;3.51
28305;BMP280;15569;42.652;23.040;2023-02-01T06:06:27;93060.09;;;3.64
28305;BMP280;15569;42.652;23.040;2023-02-01T06:08:52;93054.22;;;3.75
28305;BMP280;15569;42.652;23.040;2023-02-01T06:11:17;93043.97;;;3.81
28305;BMP280;15569;42.652;23.040;2023-02-01T06:13:43;93060.09;;;3.81
28305;BMP280;15569;42.652;23.040;2023-02-01T06:16:08;93052.56;;;3.96
28305;BMP280;15569;42.652;23.040;2023-02-01T06:18:34;93039.47;;;3.83
28305;BMP280;15569;42.652;23.040;2023-02-01T06:21:00;93050.84;;;4.08
28305;BMP280;15569;42.652;23.040;2023-02-01T06:23:27;93054.47;;;4.03
28305;BMP280;15569;42.652;23.040;2023-02-01T06:25:57;93045.91;;;3.97
28305;BMP280;15569;42.652;23.040;2023-02-01T06:28:24;93047.47;;;3.91
28305;BMP280;15569;42.652;23.040;2023-02-01T06:30:49;93057.09;;;4.11
28305;BMP280;15569;42.652;23.040;2023-02-01T06:33:15;93057.66;;;3.92
28305;BMP280;15569;42.652;23.040;2023-02-01T06:35:43;93053.53;;;4.08
28305;BMP280;15569;42.652;23.040;2023-02-01T06:38:10;93064.78;;;4.24
28305;BMP280;15569;42.652;23.040;2023-02-01T06:40:36;93041.00;;;4.21
28305;BMP280;15569;42.652;23.040;2023-02-01T06:43:02;93049.56;;;4.09
28305;BMP280;15569;42.652;23.040;2023-02-01T06:45:27;93057.09;;;4.11
28305;BMP280;15569;42.652;23.040;2023-02-01T06:47:53;93069.25;;;4.29
28305;BMP280;15569;42.652;23.040;2023-02-01T06:50:18;93059.34;;;3.97
28305;BMP280;15569;42.652;23.040;2023-02-01T06:52:43;93075.34;;;4.30
28305;BMP280;15569;42.652;23.040;2023-02-01T06:55:09;93068.53;;;4.29
28305;BMP280;15569;42.652;23.040;2023-02-01T06:57:34;93074.81;;;3.97
28305;BMP280;15569;42.652;23.040;2023-02-01T07:00:02;93086.16;;;4.22
28305;BMP280;15569;42.652;23.040;2023-02-01T07:02:28;93088.38;;;4.33
28305;BMP280;15569;42.652;23.040;2023-02-01T07:04:53;93108.13;;;4.62
28305;BMP280;15569;42.652;23.040;2023-02-01T07:07:19;93099.34;;;4.45
28305;BMP280;15569;42.652;23.040;2023-02-01T07:09:45;93107.06;;;4.58
28305;BMP280;15569;42.652;23.040;2023-02-01T07:12:11;93098.69;;;4.54
28305;BMP280;15569;42.652;23.040;2023-02-01T07:14:36;93107.47;;;4.54
28305;BMP280;15569;42.652;23.040;2023-02-01T07:17:02;93112.22;;;4.63
28305;BMP280;15569;42.652;23.040;2023-02-01T07:19:27;93115.81;;;4.75
28305;BMP280;15569;42.652;23.040;2023-02-01T07:21:53;93115.63;;;4.64
28305;BMP280;15569;42.652;23.040;2023-02-01T07:24:18;93124.88;;;4.70
28305;BMP280;15569;42.652;23.040;2023-02-01T07:26:43;93122.94;;;4.81
28305;BMP280;15569;42.652;23.040;2023-02-01T07:29:09;93121.00;;;4.91
28305;BMP280;15569;42.652;23.040;2023-02-01T07:31:34;93117.09;;;5.01
28305;BMP280;15569;42.652;23.040;2023-02-01T07:34:00;93123.03;;;5.00
28305;BMP280;15569;42.652;23.040;2023-02-01T07:36:27;93119.94;;;4.76
28305;BMP280;15569;42.652;23.040;2023-02-01T07:38:53;93118.19;;;4.89
28305;BMP280;15569;42.652;23.040;2023-02-01T07:41:18;93120.41;;;4.83
28305;BMP280;15569;42.652;23.040;2023-02-01T07:43:44;93128.75;;;5.04
28305;BMP280;15569;42.652;23.040;2023-02-01T07:46:10;93136.41;;;5.07
28305;BMP280;15569;42.652;23.040;2023-02-01T07:48:36;93127.88;;;5.11
28305;BMP280;15569;42.652;23.040;2023-02-01T07:51:04;93144.44;;;4.98
28305;BMP280;15569;42.652;23.040;2023-02-01T07:53:31;93128.44;;;5.00
28305;BMP280;15569;42.652;23.040;2023-02-01T07:58:23;93145.31;;;5.36
28305;BMP280;15569;42.652;23.040;2023-02-01T08:00:49;93142.25;;;5.59
28305;BMP280;15569;42.652;23.040;2023-02-01T08:03:38;93152.63;;;5.72
28305;BMP280;15569;42.652;23.040;2023-02-01T08:06:04;93136.09;;;5.39
28305;BMP280;15569;42.652;23.040;2023-02-01T08:08:29;93147.91;;;5.54
28305;BMP280;15569;42.652;23.040;2023-02-01T08:10:59;93148.19;;;5.48
28305;BMP280;15569;42.652;23.040;2023-02-01T08:13:24;93144.59;;;5.36
28305;BMP280;15569;42.652;23.040;2023-02-01T08:15:50;93144.94;;;5.59
28305;BMP280;15569;42.652;23.040;2023-02-01T08:18:15;93150.06;;;5.65
28305;BMP280;15569;42.652;23.040;2023-02-01T08:20:43;93156.22;;;5.84
28305;BMP280;15569;42.652;23.040;2023-02-01T08:23:11;93130.47;;;5.74
28305;BMP280;15569;42.652;23.040;2023-02-01T08:25:37;93150.38;;;5.69
28305;BMP280;15569;42.652;23.040;2023-02-01T08:28:03;93130.66;;;5.20
28305;BMP280;15569;42.652;23.040;2023-02-01T08:30:29;93160.13;;;5.64
28305;BMP280;15569;42.652;23.040;2023-02-01T08:32:54;93159.00;;;5.67
28305;BMP280;15569;42.652;23.040;2023-02-01T08:35:19;93156.75;;;5.73
28305;BMP280;15569;42.652;23.040;2023-02-01T08:37:45;93154.13;;;5.47
28305;BMP280;15569;42.652;23.040;2023-02-01T08:40:10;93135.28;;;5.56
28305;BMP280;15569;42.652;23.040;2023-02-01T08:42:36;93149.41;;;5.83
28305;BMP280;15569;42.652;23.040;2023-02-01T08:45:18;93139.75;;;5.80
28305;BMP280;15569;42.652;23.040;2023-02-01T08:47:47;93140.72;;;5.75
28305;BMP280;15569;42.652;23.040;2023-02-01T08:50:13;93138.06;;;6.04
28305;BMP280;15569;42.652;23.040;2023-02-01T08:52:39;93136.34;;;6.28
28305;BMP280;15569;42.652;23.040;2023-02-01T08:55:05;93142.31;;;6.17
28305;BMP280;15569;42.652;23.040;2023-02-01T08:57:32;93127.53;;;6.37
28305;BMP280;15569;42.652;23.040;2023-02-01T08:59:57;93131.38;;;6.53
28305;BMP280;15569;42.652;23.040;2023-02-01T09:02:23;93136.09;;;6.24
28305;BMP280;15569;42.652;23.040;2023-02-01T09:04:48;93137.31;;;6.42
28305;BMP280;15569;42.652;23.040;2023-02-01T09:07:13;93126.69;;;6.44
28305;BMP280;15569;42.652;23.040;2023-02-01T09:09:39;93142.00;;;5.74
28305;BMP280;15569;42.652;23.040;2023-02-01T09:12:04;93128.69;;;6.05
28305;BMP280;15569;42.652;23.040;2023-02-01T09:14:30;93147.28;;;6.30
28305;BMP280;15569;42.652;23.040;2023-02-01T09:16:56;93153.81;;;6.46
28305;BMP280;15569;42.652;23.040;2023-02-01T09:19:21;93144.16;;;6.62
28305;BMP280;15569;42.652;23.040;2023-02-01T09:21:47;93147.06;;;6.85
28305;BMP280;15569;42.652;23.040;2023-02-01T09:24:12;93153.09;;;7.05
28305;BMP280;15569;42.652;23.040;2023-02-01T09:26:38;93152.59;;;7.37
28305;BMP280;15569;42.652;23.040;2023-02-01T09:29:04;93146.34;;;7.56
28305;BMP280;15569;42.652;23.040;2023-02-01T09:31:31;93154.00;;;7.28
28305;BMP280;15569;42.652;23.040;2023-02-01T09:33:57;93134.34;;;7.07
28305;BMP280;15569;42.652;23.040;2023-02-01T09:36:22;93126.59;;;7.22
28305;BMP280;15569;42.652;23.040;2023-02-01T09:38:48;93131.53;;;6.95
28305;BMP280;15569;42.652;23.040;2023-02-01T09:44:42;93118.88;;;6.10
28305;BMP280;15569;42.652;23.040;2023-02-01T09:47:20;93112.50;;;6.24
28305;BMP280;15569;42.652;23.040;2023-02-01T09:49:57;93117.72;;;5.65
28305;BMP280;15569;42.652;23.040;2023-02-01T09:52:29;93101.56;;;5.93
28305;BMP280;15569;42.652;23.040;2023-02-01T09:55:00;93103.81;;;5.78
28305;BMP280;15569;42.652;23.040;2023-02-01T09:57:44;93103.09;;;6.06
28305;BMP280;15569;42.652;23.040;2023-02-01T10:00:22;93082.81;;;5.95
28305;BMP280;15569;42.652;23.040;2023-02-01T10:02:49;93106.78;;;6.30
28305;BMP280;15569;42.652;23.040;2023-02-01T10:05:20;93115.59;;;5.82
28305;BMP280;15569;42.652;23.040;2023-02-01T10:08:04;93100.78;;;5.45
28305;BMP280;15569;42.652;23.040;2023-02-01T10:10:43;93105.66;;;5.94
28305;BMP280;15569;42.652;23.040;2023-02-01T10:13:24;93107.16;;;5.40
28305;BMP280;15569;42.652;23.040;2023-02-01T10:18:46;93113.47;;;4.19
28305;BMP280;15569;42.652;23.040;2023-02-01T10:27:11;93073.72;;;5.72
28305;BMP280;15569;42.652;23.040;2023-02-01T10:29:39;93097.44;;;5.92
28305;BMP280;15569;42.652;23.040;2023-02-01T10:32:15;93099.56;;;6.13
28305;BMP280;15569;42.652;23.040;2023-02-01T10:34:43;93095.06;;;6.75
28305;BMP280;15569;42.652;23.040;2023-02-01T10:37:26;93108.84;;;6.79
28305;BMP280;15569;42.652;23.040;2023-02-01T10:39:54;93105.50;;;6.31
28305;BMP280;15569;42.652;23.040;2023-02-01T10:42:24;93101.25;;;5.15
28305;BMP280;15569;42.652;23.040;2023-02-01T10:44:50;93107.13;;;5.30
28305;BMP280;15569;42.652;23.040;2023-02-01T10:47:16;93090.34;;;5.78
28305;BMP280;15569;42.652;23.040;2023-02-01T10:52:35;93095.16;;;6.37
28305;BMP280;15569;42.652;23.040;2023-02-01T10:55:39;93094.81;;;6.61
28305;BMP280;15569;42.652;23.040;2023-02-01T10:58:17;93089.00;;;6.55
28305;BMP280;15569;42.652;23.040;2023-02-01T11:00:49;93098.53;;;6.47
28305;BMP280;15569;42.652;23.040;2023-02-01T11:05:56;93103.81;;;5.68
28305;BMP280;15569;42.652;23.040;2023-02-01T11:08:21;93099.59;;;5.29
28305;BMP280;15569;42.652;23.040;2023-02-01T11:10:47;93089.63;;;5.77
28305;BMP280;15569;42.652;23.040;2023-02-01T11:13:28;93079.66;;;6.18
28305;BMP280;15569;42.652;23.040;2023-02-01T11:15:55;93087.34;;;6.22
28305;BMP280;15569;42.652;23.040;2023-02-01T11:18:27;93080.84;;;6.05
28305;BMP280;15569;42.652;23.040;2023-02-01T11:20:53;93077.44;;;5.95
28305;BMP280;15569;42.652;23.040;2023-02-01T11:23:23;93079.66;;;6.37
28305;BMP280;15569;42.652;23.040;2023-02-01T11:28:14;93065.50;;;5.98
28305;BMP280;15569;42.652;23.040;2023-02-01T11:30:43;93069.25;;;6.53
28305;BMP280;15569;42.652;23.040;2023-02-01T11:33:14;93056.38;;;5.94
28305;BMP280;15569;42.652;23.040;2023-02-01T11:35:41;93055.25;;;5.87
28305;BMP280;15569;42.652;23.040;2023-02-01T11:40:47;93061.53;;;6.99
28305;BMP280;15569;42.652;23.040;2023-02-01T11:43:22;93057.78;;;7.14
28305;BMP280;15569;42.652;23.040;2023-02-01T11:45:58;93051.06;;;7.46
28305;BMP280;15569;42.652;23.040;2023-02-01T11:48:27;93043.13;;;7.38
28305;BMP280;15569;42.652;23.040;2023-02-01T11:54:02;93033.28;;;8.99
28305;BMP280;15569;42.652;23.040;2023-02-01T11:56:39;93037.72;;;9.77
28305;BMP280;15569;42.652;23.040;2023-02-01T12:01:54;93028.72;;;10.64
28305;BMP280;15569;42.652;23.040;2023-02-01T12:07:42;93027.16;;;9.58
28305;BMP280;15569;42.652;23.040;2023-02-01T12:31:14;93024.09;;;15.64
28305;BMP280;15569;42.652;23.040;2023-02-01T12:41:53;93023.22;;;13.30
28305;BMP280;15569;42.652;23.040;2023-02-01T12:44:35;93023.44;;;12.39
28305;BMP280;15569;42.652;23.040;2023-02-01T12:50:05;93010.06;;;13.42
28305;BMP280;15569;42.652;23.040;2023-02-01T12:52:49;93021.31;;;12.68
28305;BMP280;15569;42.652;23.040;2023-02-01T12:55:17;93020.69;;;12.08
28305;BMP280;15569;42.652;23.040;2023-02-01T13:00:37;93011.16;;;16.38
28305;BMP280;15569;42.652;23.040;2023-02-01T13:03:36;93028.28;;;18.02
28305;BMP280;15569;42.652;23.040;2023-02-01T13:06:17;93015.03;;;18.99
28305;BMP280;15569;42.652;23.040;2023-02-01T13:11:48;93027.41;;;18.27
28305;BMP280;15569;42.652;23.040;2023-02-01T13:16:49;93020.19;;;20.12
28305;BMP280;15569;42.652;23.040;2023-02-01T13:21:53;93000.53;;;21.10
28305;BMP280;15569;42.652;23.040;2023-02-01T13:24:37;93018.72;;;20.63
28305;BMP280;15569;42.652;23.040;2023-02-01T13:27:04;93022.81;;;19.55
28305;BMP280;15569;42.652;23.040;2023-02-01T13:29:32;93009.97;;;18.86
28305;BMP280;15569;42.652;23.040;2023-02-01T13:43:04;93012.94;;;16.78
28305;BMP280;15569;42.652;23.040;2023-02-01T13:45:33;92996.06;;;16.62
28305;BMP280;15569;42.652;23.040;2023-02-01T13:48:04;92995.94;;;14.58
28305;BMP280;15569;42.652;23.040;2023-02-01T13:50:36;93011.91;;;13.20
28305;BMP280;15569;42.652;23.040;2023-02-01T13:53:57;93009.50;;;12.80
28305;BMP280;15569;42.652;23.040;2023-02-01T13:56:19;92999.25;;;12.16
28305;BMP280;15569;42.652;23.040;2023-02-01T13:58:48;93013.88;;;11.77
28305;BMP280;15569;42.652;23.040;2023-02-01T14:03:45;93010.91;;;11.15
28305;BMP280;15569;42.652;23.040;2023-02-01T14:08:44;93017.31;;;10.01
28305;BMP280;15569;42.652;23.040;2023-02-01T14:11:31;93024.22;;;8.82
28305;BMP280;15569;42.652;23.040;2023-02-01T14:14:36;93026.19;;;9.05
28305;BMP280;15569;42.652;23.040;2023-02-01T14:19:28;93009.38;;;8.49
28305;BMP280;15569;42.652;23.040;2023-02-01T14:24:54;93014.44;;;8.43
28305;BMP280;15569;42.652;23.040;2023-02-01T14:27:28;93001.84;;;8.47
28305;BMP280;15569;42.652;23.040;2023-02-01T14:29:58;93007.13;;;8.45
28305;BMP280;15569;42.652;23.040;2023-02-01T14:32:39;93019.50;;;8.48
28305;BMP280;15569;42.652;23.040;2023-02-01T14:35:24;93011.69;;;8.20
28305;BMP280;15569;42.652;23.040;2023-02-01T14:37:53;93012.09;;;8.83
28305;BMP280;15569;42.652;23.040;2023-02-01T14:40:26;93004.88;;;8.53
28305;BMP280;15569;42.652;23.040;2023-02-01T14:42:53;93005.38;;;8.50
28305;BMP280;15569;42.652;23.040;2023-02-01T14:47:47;93026.41;;;9.69
28305;BMP280;15569;42.652;23.040;2023-02-01T15:15:20;92989.44;;;10.14
28305;BMP280;15569;42.652;23.040;2023-02-01T15:17:54;92994.94;;;9.52
28305;BMP280;15569;42.652;23.040;2023-02-01T15:20:27;92995.38;;;9.35
28305;BMP280;15569;42.652;23.040;2023-02-01T15:25:23;92995.41;;;9.24
28305;BMP280;15569;42.652;23.040;2023-02-01T15:27:49;92987.69;;;8.83
28305;BMP280;15569;42.652;23.040;2023-02-01T15:30:23;92992.88;;;8.79
28305;BMP280;15569;42.652;23.040;2023-02-01T15:32:49;92992.31;;;8.46
28305;BMP280;15569;42.652;23.040;2023-02-01T15:35:39;92979.44;;;8.24
28305;BMP280;15569;42.652;23.040;2023-02-01T15:43:26;92988.56;;;7.63
28305;BMP280;15569;42.652;23.040;2023-02-01T15:45:56;92986.44;;;7.61
28305;BMP280;15569;42.652;23.040;2023-02-01T15:48:34;92981.56;;;7.48
28305;BMP280;15569;42.652;23.040;2023-02-01T15:51:00;92976.59;;;7.45
28305;BMP280;15569;42.652;23.040;2023-02-01T15:53:26;92977.06;;;7.20
28305;BMP280;15569;42.652;23.040;2023-02-01T15:55:58;92981.84;;;7.10
28305;BMP280;15569;42.652;23.040;2023-02-01T15:58:25;92992.13;;;7.02
28305;BMP280;15569;42.652;23.040;2023-02-01T16:00:54;92994.66;;;6.79
28305;BMP280;15569;42.652;23.040;2023-02-01T16:03:39;92998.72;;;6.58
28305;BMP280;15569;42.652;23.040;2023-02-01T16:06:12;93008.13;;;6.48
28305;BMP280;15569;42.652;23.040;2023-02-01T16:08:49;93009.47;;;6.37
28305;BMP280;15569;42.652;23.040;2023-02-01T16:11:26;93003.88;;;6.45
28305;BMP280;15569;42.652;23.040;2023-02-01T16:13:52;93003.34;;;6.37
28305;BMP280;15569;42.652;23.040;2023-02-01T16:16:18;93000.34;;;6.42
28305;BMP280;15569;42.652;23.040;2023-02-01T16:18:43;93008.03;;;6.36
28305;BMP280;15569;42.652;23.040;2023-02-01T16:21:10;93020.66;;;6.43
28305;BMP280;15569;42.652;23.040;2023-02-01T16:23:38;93019.88;;;6.22
28305;BMP280;15569;42.652;23.040;2023-02-01T16:26:04;93031.53;;;6.15
28305;BMP280;15569;42.652;23.040;2023-02-01T16:28:31;93034.78;;;6.23
28305;BMP280;15569;42.652;23.040;2023-02-01T16:30:56;93033.25;;;6.10
28305;BMP280;15569;42.652;23.040;2023-02-01T16:33:22;93029.38;;;6.13
28305;BMP280;15569;42.652;23.040;2023-02-01T16:35:49;93037.91;;;6.19
28305;BMP280;15569;42.652;23.040;2023-02-01T16:38:17;93029.78;;;6.29
28305;BMP280;15569;42.652;23.040;2023-02-01T16:40:45;93034.47;;;6.28
28305;BMP280;15569;42.652;23.040;2023-02-01T16:45:41;93039.06;;;6.06
28305;BMP280;15569;42.652;23.040;2023-02-01T16:48:15;93044.47;;;6.06
28305;BMP280;15569;42.652;23.040;2023-02-01T16:50:42;93032.69;;;5.92
28305;BMP280;15569;42.652;23.040;2023-02-01T16:53:10;93047.16;;;6.06
28305;BMP280;15569;42.652;23.040;2023-02-01T16:55:37;93049.56;;;6.12
28305;BMP280;15569;42.652;23.040;2023-02-01T16:58:03;93029.56;;;6.05
28305;BMP280;15569;42.652;23.040;2023-02-01T17:00:28;93036.81;;;5.84
28305;BMP280;15569;42.652;23.040;2023-02-01T17:02:56;93040.91;;;5.94